Time;durP1;ratioP1;P1;durP2;ratioP2;P2;SDS_P1;SDS_P2;PMS_P1;PMS_P2;Temp;Humidity;BMP_temperature;BMP_pressure;BME280_temperature;BME280_humidity;BME280_pressure;Samples;Min_cycle;Max_cycle;Signal;HPM_P1;HPM_P2
2023/08/02 00:00:00;;;;;;;;;;;;;;;18.11;45.68;100096.81;5099896;28;1209;-57
2023/08/02 00:02:26;;;;;;;;;;;;;;;17.83;45.67;100092.31;5100333;28;1110;-57
2023/08/02 00:04:51;;;;;;;;;;;;;;;17.69;45.04;100092.25;5099202;28;1030;-57
2023/08/02 00:07:17;;;;;;;;;;;;;;;17.58;44.84;100091.56;5100182;28;1149;-57
2023/08/02 00:09:42;;;;;;;;;;;;;;;17.49;44.66;100099.66;5099676;28;1192;-55
2023/08/02 00:12:08;;;;;;;;;;;;;;;17.40;44.67;100102.28;5100123;28;1905;-56
2023/08/02 00:14:33;;;;;;;;;;;;;;;17.48;44.45;100097.22;5099316;28;1144;-56
2023/08/02 00:16:59;;;;;;;;;;;;;;;18.46;45.66;100094.56;5099175;28;889;-56
2023/08/02 00:19:25;;;;;;;;;;;;;;;17.81;46.04;100094.53;5099599;28;1180;-56
2023/08/02 00:21:50;;;;;;;;;;;;;;;17.69;45.68;100098.53;5099594;28;1077;-56
2023/08/02 00:24:16;;;;;;;;;;;;;;;17.68;45.11;100104.34;5099112;28;1014;-56
2023/08/02 00:26:41;;;;;;;;;;;;;;;17.70;44.61;100105.69;5099482;28;1121;-56
2023/08/02 00:29:07;;;;;;;;;;;;;;;17.56;44.36;100110.31;5098484;28;1101;-56
2023/08/02 00:31:32;;;;;;;;;;;;;;;17.46;44.16;100108.50;5099903;28;1138;-56
2023/08/02 00:33:58;;;;;;;;;;;;;;;17.38;44.42;100111.91;5081413;28;1984;-55
2023/08/02 00:36:24;;;;;;;;;;;;;;;17.38;44.07;100100.94;5099785;28;1054;-56
2023/08/02 00:38:49;;;;;;;;;;;;;;;17.44;43.86;100097.78;5099127;28;1141;-56
2023/08/02 00:41:15;;;;;;;;;;;;;;;18.38;45.09;100095.25;5098730;28;1152;-59
2023/08/02 00:43:44;;;;;;;;;;;;;;;17.85;45.86;100101.06;5098866;28;1105;-57
2023/08/02 00:46:10;;;;;;;;;;;;;;;17.78;45.08;100107.78;5099417;28;1150;-58
2023/08/02 00:48:36;;;;;;;;;;;;;;;17.63;45.01;100102.50;5098507;28;1220;-58
2023/08/02 00:51:02;;;;;;;;;;;;;;;17.50;44.63;100100.47;5099279;28;1218;-59
2023/08/02 00:53:27;;;;;;;;;;;;;;;17.56;44.31;100097.38;5099112;28;2051;-59
2023/08/02 00:55:54;;;;;;;;;;;;;;;18.55;45.12;100093.88;5067833;28;1122;-59
2023/08/02 00:58:19;;;;;;;;;;;;;;;17.81;46.17;100109.13;5080992;28;1062;-59
2023/08/02 01:00:45;;;;;;;;;;;;;;;17.62;45.58;100098.91;5098843;28;1193;-58
2023/08/02 01:03:11;;;;;;;;;;;;;;;17.61;45.08;100096.47;5091775;28;1132;-58
2023/08/02 01:05:38;;;;;;;;;;;;;;;17.56;44.71;100097.38;5092353;28;869;-58
2023/08/02 01:08:04;;;;;;;;;;;;;;;17.55;44.35;100097.66;5080847;28;1280;-58
2023/08/02 01:10:39;;;;;;;;;;;;;;;17.60;44.36;100090.16;5080993;28;1155;-58
2023/08/02 01:13:05;;;;;;;;;;;;;;;17.45;44.17;100101.38;5080469;28;1901;-57
2023/08/02 01:15:30;;;;;;;;;;;;;;;17.65;44.53;100092.00;5080373;28;1046;-58
2023/08/02 01:17:57;;;;;;;;;;;;;;;18.07;45.96;100093.03;5080363;28;972;-58
2023/08/02 01:20:23;;;;;;;;;;;;;;;17.79;45.83;100097.56;5098535;28;1220;-58
2023/08/02 01:22:48;;;;;;;;;;;;;;;17.68;45.13;100096.09;5098778;28;1074;-57
2023/08/02 01:25:14;;;;;;;;;;;;;;;17.64;44.89;100089.56;5098234;28;1231;-56
2023/08/02 01:27:41;;;;;;;;;;;;;;;17.54;44.44;100104.25;5098387;28;1122;-56
2023/08/02 01:30:08;;;;;;;;;;;;;;;17.58;44.40;100091.56;5098101;28;901;-56
2023/08/02 01:32:33;;;;;;;;;;;;;;;17.38;44.45;100101.72;5080446;28;1910;-56
2023/08/02 01:34:59;;;;;;;;;;;;;;;17.50;44.19;100094.97;5080227;28;1399;-56
2023/08/02 01:37:24;;;;;;;;;;;;;;;17.47;43.94;100084.59;5098295;28;1097;-56
2023/08/02 01:39:50;;;;;;;;;;;;;;;17.58;44.07;100080.56;5063551;28;1098;-57
2023/08/02 01:42:16;;;;;;;;;;;;;;;18.18;45.42;100081.88;5079511;28;1327;-57
2023/08/02 01:44:41;;;;;;;;;;;;;;;17.79;45.63;100081.91;5098240;28;1216;-57
2023/08/02 01:47:07;;;;;;;;;;;;;;;17.67;45.10;100084.28;5098162;28;1193;-57
2023/08/02 01:49:32;;;;;;;;;;;;;;;17.54;45.12;100074.03;5097779;28;1094;-58
2023/08/02 01:51:58;;;;;;;;;;;;;;;17.57;44.35;100084.44;5079946;28;1512;-58
2023/08/02 01:54:23;;;;;;;;;;;;;;;17.42;44.32;100078.03;5097660;28;1905;-57
2023/08/02 01:56:49;;;;;;;;;;;;;;;17.56;43.81;100077.31;5097654;28;1038;-57
2023/08/02 01:59:14;;;;;;;;;;;;;;;17.52;44.08;100079.03;5080082;28;1155;-58
2023/08/02 02:01:40;;;;;;;;;;;;;;;18.04;45.28;100077.13;5079594;28;1174;-57
2023/08/02 02:04:06;;;;;;;;;;;;;;;17.64;45.76;100075.81;5079599;28;1148;-58
2023/08/02 02:06:32;;;;;;;;;;;;;;;17.58;44.90;100069.56;5097448;28;861;-57
2023/08/02 02:08:57;;;;;;;;;;;;;;;17.52;44.80;100076.28;5097601;28;1138;-58
2023/08/02 02:11:23;;;;;;;;;;;;;;;17.53;44.35;100073.22;5097027;28;1050;-57
2023/08/02 02:13:49;;;;;;;;;;;;;;;17.51;44.37;100075.44;5097309;28;1901;-57
2023/08/02 02:16:14;;;;;;;;;;;;;;;18.38;45.73;100076.00;5079069;28;1086;-58
2023/08/02 02:18:40;;;;;;;;;;;;;;;17.92;45.89;100082.28;5078944;28;1441;-58
2023/08/02 02:21:05;;;;;;;;;;;;;;;17.75;45.57;100078.13;5096788;28;1082;-58
2023/08/02 02:23:31;;;;;;;;;;;;;;;17.59;45.28;100077.53;5097616;28;1134;-58
2023/08/02 02:25:57;;;;;;;;;;;;;;;17.56;44.84;100085.56;5097291;28;1113;-58
2023/08/02 02:28:22;;;;;;;;;;;;;;;17.55;44.56;100081.97;5096870;28;1066;-58
2023/08/02 02:30:48;;;;;;;;;;;;;;;17.45;44.37;100082.94;5078780;28;893;-57
2023/08/02 02:33:13;;;;;;;;;;;;;;;17.54;44.15;100077.59;5097340;28;1973;-58
2023/08/02 02:35:39;;;;;;;;;;;;;;;17.91;44.76;100077.91;5097224;28;1221;-57
2023/08/02 02:38:04;;;;;;;;;;;;;;;18.15;45.78;100090.75;5097060;28;1057;-58
2023/08/02 02:40:30;;;;;;;;;;;;;;;17.82;45.47;100085.16;5096996;28;1042;-57
2023/08/02 02:42:56;;;;;;;;;;;;;;;17.73;45.16;100076.78;5097186;28;861;-57
2023/08/02 02:45:21;;;;;;;;;;;;;;;17.62;44.61;100076.91;5078856;28;1253;-57
2023/08/02 02:47:47;;;;;;;;;;;;;;;17.58;44.36;100075.06;5096670;28;1042;-58
2023/08/02 02:50:13;;;;;;;;;;;;;;;17.62;44.03;100070.63;5096478;28;1050;-57
2023/08/02 02:52:41;;;;;;;;;;;;;;;17.52;44.10;100070.78;5097022;28;1915;-58
2023/08/02 02:55:07;;;;;;;;;;;;;;;17.43;43.84;100068.69;5078045;28;1000;-58
2023/08/02 02:57:33;;;;;;;;;;;;;;;18.63;45.22;100074.72;5096888;28;1014;-58
2023/08/02 02:59:58;;;;;;;;;;;;;;;17.89;46.15;100071.84;5096651;28;1014;-58
2023/08/02 03:02:24;;;;;;;;;;;;;;;17.82;45.54;100074.97;5097271;28;1220;-58
2023/08/02 03:04:49;;;;;;;;;;;;;;;17.74;45.00;100084.72;5096567;28;1042;-57
2023/08/02 03:07:15;;;;;;;;;;;;;;;17.64;44.71;100084.06;5095591;28;971;-59
2023/08/02 03:09:41;;;;;;;;;;;;;;;17.58;44.46;100086.06;5078380;28;1031;-58
2023/08/02 03:12:06;;;;;;;;;;;;;;;17.46;44.56;100083.78;5095083;28;1918;-57
2023/08/02 03:14:32;;;;;;;;;;;;;;;17.55;43.93;100084.72;5096364;28;980;-58
2023/08/02 03:16:58;;;;;;;;;;;;;;;17.48;44.08;100097.22;5095990;28;2793;-55
2023/08/02 03:19:23;;;;;;;;;;;;;;;17.56;44.23;100093.81;5095183;28;944;-55
2023/08/02 03:21:49;;;;;;;;;;;;;;;17.94;45.51;100085.56;5095490;28;1121;-56
2023/08/02 03:24:14;;;;;;;;;;;;;;;17.73;45.41;100082.28;5094795;28;1057;-56
2023/08/02 03:26:40;;;;;;;;;;;;;;;17.61;45.08;100078.06;5095992;28;1149;-56
2023/08/02 03:29:05;;;;;;;;;;;;;;;17.57;44.54;100077.00;5095886;28;1031;-56
2023/08/02 03:31:31;;;;;;;;;;;;;;;17.49;44.35;100074.09;5095478;28;1126;-56
2023/08/02 03:33:57;;;;;;;;;;;;;;;17.53;44.17;100077.88;5078133;28;1993;-56
2023/08/02 03:36:22;;;;;;;;;;;;;;;17.50;43.88;100076.56;5096197;28;1176;-55
2023/08/02 03:38:48;;;;;;;;;;;;;;;18.25;44.96;100076.78;5095240;28;1129;-58
2023/08/02 03:41:13;;;;;;;;;;;;;;;18.03;45.91;100091.19;5077385;28;1295;-58
2023/08/02 03:43:39;;;;;;;;;;;;;;;17.80;45.52;100085.47;5095660;28;1330;-57
2023/08/02 03:46:05;;;;;;;;;;;;;;;17.63;45.29;100077.75;5090172;28;2478;-56
2023/08/02 03:48:31;;;;;;;;;;;;;;;17.64;44.65;100081.31;5095233;28;1453;-54
2023/08/02 03:50:57;;;;;;;;;;;;;;;17.68;44.16;100079.59;5095799;28;1126;-56
2023/08/02 03:53:23;;;;;;;;;;;;;;;17.51;44.34;100080.13;5095135;28;1979;-55
2023/08/02 03:55:49;;;;;;;;;;;;;;;17.48;44.21;100072.47;5068453;28;1531;-55
2023/08/02 03:58:14;;;;;;;;;;;;;;;17.66;44.73;100079.91;5079848;28;975;-57
2023/08/02 04:00:40;;;;;;;;;;;;;;;17.44;44.73;100080.50;5091829;28;975;-52
2023/08/02 04:03:05;;;;;;;;;;;;;;;17.35;44.78;100076.75;5095827;28;1011;-55
2023/08/02 04:05:31;;;;;;;;;;;;;;;17.43;44.13;100068.69;5090663;28;1154;-62
2023/08/02 04:07:56;;;;;;;;;;;;;;;18.19;45.72;100064.22;5089248;28;1125;-59
2023/08/02 04:10:23;;;;;;;;;;;;;;;17.79;45.81;100062.66;5084782;28;1027;-60
2023/08/02 04:12:52;;;;;;;;;;;;;;;17.64;45.54;100062.06;5081499;28;1993;-58
2023/08/02 04:15:17;;;;;;;;;;;;;;;17.57;45.10;100066.03;5079689;28;1788;-59
2023/08/02 04:17:43;;;;;;;;;;;;;;;17.64;44.57;100051.88;5078128;28;1182;-57
2023/08/02 04:20:09;;;;;;;;;;;;;;;17.57;44.67;100054.19;5094352;28;991;-59
2023/08/02 04:22:34;;;;;;;;;;;;;;;17.45;44.40;100054.66;5095395;28;1057;-59
2023/08/02 04:25:00;;;;;;;;;;;;;;;17.49;44.08;100063.94;5085414;28;1126;-60
2023/08/02 04:27:25;;;;;;;;;;;;;;;17.43;44.48;100062.34;5075351;28;1038;-58
2023/08/02 04:29:51;;;;;;;;;;;;;;;17.48;44.00;100061.50;5082897;28;1035;-58
2023/08/02 04:32:16;;;;;;;;;;;;;;;17.34;44.19;100062.22;5078008;28;1918;-59
2023/08/02 04:34:42;;;;;;;;;;;;;;;18.46;45.26;100060.72;5096429;28;1054;-55
2023/08/02 04:37:07;;;;;;;;;;;;;;;17.89;46.08;100055.34;5082880;28;1130;-56
2023/08/02 04:39:33;;;;;;;;;;;;;;;17.74;45.97;100057.22;5084857;28;1023;-55
2023/08/02 04:42:02;;;;;;;;;;;;;;;17.69;45.52;100064.75;5098745;28;1086;-57
2023/08/02 04:44:27;;;;;;;;;;;;;;;17.67;44.88;100059.56;5085184;28;1033;-57
2023/08/02 04:46:53;;;;;;;;;;;;;;;17.52;44.92;100066.09;5079741;28;2084;-57
2023/08/02 04:49:19;;;;;;;;;;;;;;;18.89;43.54;100068.75;5097842;28;1202;-57
2023/08/02 04:51:44;;;;;;;;;;;;;;;18.61;44.89;100067.91;5095120;28;1066;-58
2023/08/02 04:54:10;;;;;;;;;;;;;;;18.34;45.95;100068.66;5093401;28;1898;-59
2023/08/02 04:56:35;;;;;;;;;;;;;;;18.22;46.38;100072.72;5098418;28;1045;-59
2023/08/02 04:59:01;;;;;;;;;;;;;;;18.16;46.68;100065.66;5095061;28;1042;-58
2023/08/02 05:01:26;;;;;;;;;;;;;;;18.06;47.17;100068.56;5088270;28;1023;-59
2023/08/02 05:03:52;;;;;;;;;;;;;;;17.97;47.69;100076.69;5082770;28;1054;-59
2023/08/02 05:06:18;;;;;;;;;;;;;;;17.94;47.53;100067.13;5086724;28;1189;-59
2023/08/02 05:08:43;;;;;;;;;;;;;;;17.95;47.76;100067.94;5089760;28;1135;-59
2023/08/02 05:11:09;;;;;;;;;;;;;;;17.88;48.52;100068.28;5098176;28;1031;-58
2023/08/02 05:13:35;;;;;;;;;;;;;;;17.84;48.61;100067.25;5092112;28;1976;-58
2023/08/02 05:16:00;;;;;;;;;;;;;;;17.76;48.92;100068.75;5078233;28;1840;-59
2023/08/02 05:18:26;;;;;;;;;;;;;;;17.74;48.93;100072.91;5083872;28;1046;-58
2023/08/02 05:20:52;;;;;;;;;;;;;;;17.73;49.10;100061.09;5098515;28;1058;-59
2023/08/02 05:23:17;;;;;;;;;;;;;;;17.64;49.57;100065.63;5078282;28;1106;-59
2023/08/02 05:25:43;;;;;;;;;;;;;;;17.64;49.44;100071.13;5077926;28;1051;-59
2023/08/02 05:28:08;;;;;;;;;;;;;;;17.60;49.69;100070.09;5077633;28;999;-57
2023/08/02 05:30:35;;;;;;;;;;;;;;;17.56;49.75;100066.31;5078150;28;991;-58
2023/08/02 05:33:00;;;;;;;;;;;;;;;17.54;50.10;100068.53;5083918;28;1909;-59
2023/08/02 05:35:26;;;;;;;;;;;;;;;17.51;50.03;100067.19;5097963;28;1106;-55
2023/08/02 05:37:54;;;;;;;;;;;;;;;17.55;50.00;100072.94;5080316;28;1398;-53
2023/08/02 05:40:20;;;;;;;;;;;;;;;17.49;50.29;100077.69;5093687;28;1016;-56
2023/08/02 05:42:45;;;;;;;;;;;;;;;17.41;50.43;100067.34;5091254;28;1027;-58
2023/08/02 05:45:11;;;;;;;;;;;;;;;17.39;50.55;100067.66;5097157;28;2268;-58
2023/08/02 05:47:36;;;;;;;;;;;;;;;17.45;50.53;100068.38;5092965;28;1097;-61
2023/08/02 05:50:02;;;;;;;;;;;;;;;17.39;50.85;100069.56;5085259;28;1091;-60
2023/08/02 05:52:28;;;;;;;;;;;;;;;17.38;50.79;100065.19;5096266;28;1901;-61
2023/08/02 05:54:53;;;;;;;;;;;;;;;17.38;51.07;100062.44;5097660;28;1245;-61
2023/08/02 05:57:19;;;;;;;;;;;;;;;17.36;51.02;100057.25;5097141;28;1050;-59
2023/08/02 05:59:44;;;;;;;;;;;;;;;17.31;50.95;100065.56;5097369;28;1105;-57
2023/08/02 06:02:10;;;;;;;;;;;;;;;17.39;50.92;100062.16;5096146;28;1201;-59
2023/08/02 06:04:36;;;;;;;;;;;;;;;17.31;51.34;100070.25;5097672;28;1014;-59
2023/08/02 06:07:02;;;;;;;;;;;;;;;17.30;51.17;100063.91;5097152;28;1130;-59
2023/08/02 06:09:28;;;;;;;;;;;;;;;17.32;51.40;100061.72;5097095;28;1226;-58
2023/08/02 06:11:53;;;;;;;;;;;;;;;17.30;51.40;100063.91;5088722;28;1652;-58
2023/08/02 06:14:19;;;;;;;;;;;;;;;17.22;51.56;100061.81;5094912;28;1913;-56
2023/08/02 06:16:44;;;;;;;;;;;;;;;17.25;51.63;100058.47;5088031;28;2620;-58
2023/08/02 06:19:10;;;;;;;;;;;;;;;17.22;51.44;100061.81;5096422;28;1051;-58
2023/08/02 06:21:36;;;;;;;;;;;;;;;17.27;51.51;100061.75;5097449;28;1096;-53
2023/08/02 06:24:01;;;;;;;;;;;;;;;17.24;51.80;100060.41;5097040;28;1003;-56
2023/08/02 06:26:27;;;;;;;;;;;;;;;17.21;51.72;100065.72;5091467;28;1265;-57
2023/08/02 06:28:53;;;;;;;;;;;;;;;17.19;51.75;100067.91;5078893;28;1157;-55
2023/08/02 06:31:18;;;;;;;;;;;;;;;17.17;51.84;100065.47;5092484;28;1526;-59
2023/08/02 06:33:44;;;;;;;;;;;;;;;17.21;51.86;100071.19;5096771;28;1909;-58
2023/08/02 06:36:09;;;;;;;;;;;;;;;17.22;51.86;100067.31;5097421;28;1019;-56
2023/08/02 06:38:35;;;;;;;;;;;;;;;17.15;51.93;100061.38;5096386;28;944;-56
2023/08/02 06:41:00;;;;;;;;;;;;;;;17.10;52.05;100068.56;5096784;28;1141;-57
2023/08/02 06:43:26;;;;;;;;;;;;;;;17.19;52.05;100056.94;5096689;28;1078;-57
2023/08/02 06:45:51;;;;;;;;;;;;;;;17.12;52.11;100068.28;5090854;28;2226;-57
2023/08/02 06:48:18;;;;;;;;;;;;;;;17.15;52.05;100072.38;5096249;28;1134;-59
2023/08/02 06:50:44;;;;;;;;;;;;;;;17.13;52.39;100069.09;5096780;28;1035;-59
2023/08/02 06:53:09;;;;;;;;;;;;;;;17.09;52.22;100069.66;5096544;28;1969;-58
2023/08/02 06:55:35;;;;;;;;;;;;;;;17.10;52.39;100070.50;5096188;28;1125;-57
2023/08/02 06:58:00;;;;;;;;;;;;;;;17.09;52.59;100069.66;5096285;28;1059;-57
2023/08/02 07:00:27;;;;;;;;;;;;;;;17.12;52.43;100061.97;5096439;28;1169;-53
2023/08/02 07:02:53;;;;;;;;;;;;;;;17.12;52.29;100053.72;5078608;28;1347;-57
2023/08/02 07:05:18;;;;;;;;;;;;;;;17.08;52.56;100056.22;5095665;28;1011;-60
2023/08/02 07:07:44;;;;;;;;;;;;;;;17.04;52.52;100061.50;5096032;28;1038;-60
2023/08/02 07:10:09;;;;;;;;;;;;;;;17.05;52.59;100063.13;5096778;28;1157;-58
2023/08/02 07:12:35;;;;;;;;;;;;;;;17.01;52.89;100064.84;5096009;28;1913;-63
2023/08/02 07:15:00;;;;;;;;;;;;;;;17.02;52.86;100058.22;5095857;28;1826;-51
2023/08/02 07:17:26;;;;;;;;;;;;;;;17.09;52.73;100046.88;5095935;28;1117;-57
2023/08/02 07:19:52;;;;;;;;;;;;;;;17.08;52.75;100051.56;5092385;28;1178;-63
2023/08/02 07:22:17;;;;;;;;;;;;;;;17.07;52.77;100047.19;5095595;28;1269;-58
2023/08/02 07:24:43;;;;;;;;;;;;;;;17.02;52.84;100044.50;5095413;28;1497;-57
2023/08/02 07:27:10;;;;;;;;;;;;;;;17.03;52.99;100048.06;5095597;28;1403;-57
2023/08/02 07:29:35;;;;;;;;;;;;;;;17.05;53.08;100046.66;5095233;28;1225;-59
2023/08/02 07:32:01;;;;;;;;;;;;;;;17.03;53.09;100048.88;5095569;28;1350;-58
2023/08/02 07:34:26;;;;;;;;;;;;;;;17.01;53.14;100061.28;5095763;28;1987;-61
2023/08/02 07:36:52;;;;;;;;;;;;;;;17.00;53.24;100054.97;5095656;28;1121;-59
2023/08/02 07:39:18;;;;;;;;;;;;;;;17.08;53.04;100061.72;5093070;28;1322;-60
2023/08/02 07:41:43;;;;;;;;;;;;;;;17.06;52.85;100058.47;5094306;28;1456;-56
2023/08/02 07:44:09;;;;;;;;;;;;;;;17.02;53.19;100047.25;5095301;28;948;-56
2023/08/02 07:46:34;;;;;;;;;;;;;;;17.05;53.14;100051.34;5094113;28;2469;-55
2023/08/02 07:49:00;;;;;;;;;;;;;;;17.02;53.14;100052.72;5095609;28;1138;-58
2023/08/02 07:51:26;;;;;;;;;;;;;;;17.05;53.11;100057.63;5095713;28;1100;-56
2023/08/02 07:53:51;;;;;;;;;;;;;;;17.02;53.05;100051.94;5092634;28;1921;-58
2023/08/02 07:56:17;;;;;;;;;;;;;;;16.98;53.17;100051.69;5094719;28;1167;-60
2023/08/02 07:58:42;;;;;;;;;;;;;;;16.92;53.23;100047.38;5094793;28;1382;-62
2023/08/02 08:01:08;;;;;;;;;;;;;;;16.95;53.32;100041.28;5094388;28;1398;-60
2023/08/02 08:03:34;;;;;;;;;;;;;;;16.96;53.12;100042.94;5095815;28;1109;-63
2023/08/02 08:05:59;;;;;;;;;;;;;;;17.00;53.33;100044.00;5094686;28;1453;-61
2023/08/02 08:08:25;;;;;;;;;;;;;;;16.97;53.20;100039.09;5092266;28;1141;-59
2023/08/02 08:10:51;;;;;;;;;;;;;;;17.00;53.37;100037.66;5098707;28;1343;-58
2023/08/02 08:13:17;;;;;;;;;;;;;;;17.02;53.42;100030.75;5089022;28;1909;-58
2023/08/02 08:15:43;;;;;;;;;;;;;;;16.95;53.29;100029.50;5091142;28;1894;-63
2023/08/02 08:18:09;;;;;;;;;;;;;;;16.98;53.26;100028.91;5096685;28;1378;-61
2023/08/02 08:20:34;;;;;;;;;;;;;;;17.03;53.41;100028.84;5098776;28;1276;-58
2023/08/02 08:23:00;;;;;;;;;;;;;;;17.01;53.36;100034.66;5097990;28;1128;-59
2023/08/02 08:25:25;;;;;;;;;;;;;;;16.99;53.45;100036.03;5089520;28;1373;-59
2023/08/02 08:27:51;;;;;;;;;;;;;;;16.98;53.44;100028.91;5097266;28;1347;-58
2023/08/02 08:30:16;;;;;;;;;;;;;;;16.97;53.45;100030.00;5098189;28;1228;-59
2023/08/02 08:32:42;;;;;;;;;;;;;;;16.98;53.46;100023.41;5097250;28;1918;-61
2023/08/02 08:35:09;;;;;;;;;;;;;;;16.95;53.48;100019.31;5097471;28;1327;-60
2023/08/02 08:37:35;;;;;;;;;;;;;;;16.99;53.47;100011.31;5098511;28;1355;-61
2023/08/02 08:40:00;;;;;;;;;;;;;;;17.04;53.44;100016.72;5098456;28;1276;-59
2023/08/02 08:42:26;;;;;;;;;;;;;;;16.98;53.66;100024.22;5096853;28;1022;-58
2023/08/02 08:44:51;;;;;;;;;;;;;;;16.94;53.60;100023.19;5097203;28;2405;-59
2023/08/02 08:47:17;;;;;;;;;;;;;;;16.94;53.48;100014.94;5080098;28;1024;-59
2023/08/02 08:49:44;;;;;;;;;;;;;;;16.95;53.86;100024.81;5079514;28;1261;-60
2023/08/02 08:52:11;;;;;;;;;;;;;;;16.95;53.84;100007.53;5098334;28;987;-60
2023/08/02 08:54:36;;;;;;;;;;;;;;;16.96;53.88;100009.97;5098606;28;1902;-60
2023/08/02 08:57:02;;;;;;;;;;;;;;;16.91;53.88;100012.78;5079761;28;995;-61
2023/08/02 08:59:27;;;;;;;;;;;;;;;16.99;53.59;100017.63;5080230;28;1103;-60
2023/08/02 09:01:53;;;;;;;;;;;;;;;17.01;53.83;100018.16;5080630;28;1220;-58
2023/08/02 09:04:19;;;;;;;;;;;;;;;16.89;54.52;100009.53;5080356;28;1108;-60
2023/08/02 09:06:44;;;;;;;;;;;;;;;16.93;54.15;100011.38;5098984;28;1126;-60
2023/08/02 09:09:13;;;;;;;;;;;;;;;16.98;54.25;100007.75;5098236;28;843;-60
2023/08/02 09:11:38;;;;;;;;;;;;;;;16.89;54.10;100012.28;5076490;28;1400;-60
2023/08/02 09:14:07;;;;;;;;;;;;;;;16.99;54.18;100025.88;5068179;28;1906;-59
2023/08/02 09:16:35;;;;;;;;;;;;;;;17.03;53.87;100013.19;5098248;28;2322;-61
2023/08/02 09:19:00;;;;;;;;;;;;;;;16.96;54.11;100015.47;5098154;28;1117;-61
2023/08/02 09:21:26;;;;;;;;;;;;;;;16.91;54.29;100013.63;5098004;28;1051;-60
2023/08/02 09:23:55;;;;;;;;;;;;;;;16.93;54.08;100016.06;5098324;28;1015;-59
2023/08/02 09:26:21;;;;;;;;;;;;;;;16.97;54.15;100016.28;5096900;28;1094;-60
2023/08/02 09:29:02;;;;;;;;;;;;;;;17.02;53.84;100018.97;5087842;28;1182;-58
2023/08/02 09:31:29;;;;;;;;;;;;;;;16.97;53.96;100017.13;5096673;28;1036;-54
2023/08/02 09:33:54;;;;;;;;;;;;;;;17.02;53.81;100019.78;5090634;28;1890;-60
2023/08/02 09:36:27;;;;;;;;;;;;;;;17.01;53.91;100020.06;5080456;28;1307;-57
2023/08/02 09:38:56;;;;;;;;;;;;;;;16.99;54.08;100020.38;5085972;28;1309;-60
2023/08/02 09:41:24;;;;;;;;;;;;;;;16.96;53.92;100020.13;5092070;28;1170;-60
2023/08/02 09:43:51;;;;;;;;;;;;;;;16.94;53.93;100023.19;5085632;28;1331;-62
2023/08/02 09:46:23;;;;;;;;;;;;;;;16.97;54.06;100027.28;5074034;28;2362;-67
2023/08/02 09:48:48;;;;;;;;;;;;;;;16.96;54.14;100022.88;5085644;28;1183;-66
2023/08/02 09:51:14;;;;;;;;;;;;;;;16.96;54.02;100015.47;5095716;28;1177;-60
2023/08/02 09:53:40;;;;;;;;;;;;;;;17.01;53.85;100012.66;5094779;28;1963;-57
2023/08/02 09:56:05;;;;;;;;;;;;;;;17.04;54.09;100001.09;5078196;28;1347;-55
2023/08/02 09:58:31;;;;;;;;;;;;;;;17.04;54.11;100001.09;5063693;28;1425;-59
2023/08/02 10:00:56;;;;;;;;;;;;;;;17.00;54.33;100008.28;5070744;28;1393;-57
2023/08/02 10:03:23;;;;;;;;;;;;;;;17.01;54.08;100001.69;5094186;28;1233;-59
2023/08/02 10:05:48;;;;;;;;;;;;;;;17.03;54.13;100013.19;5089283;28;1177;-58
2023/08/02 10:08:14;;;;;;;;;;;;;;;16.99;54.43;100008.59;5083981;28;1184;-58
2023/08/02 10:10:39;;;;;;;;;;;;;;;17.02;54.42;99999.75;5071704;28;976;-59
2023/08/02 10:13:08;;;;;;;;;;;;;;;17.05;54.44;99996.41;5078684;28;1980;-61
2023/08/02 10:15:34;;;;;;;;;;;;;;;17.01;54.58;99990.69;5096075;28;2552;-56
2023/08/02 10:18:00;;;;;;;;;;;;;;;17.01;54.41;99998.94;5100446;28;1095;-55
2023/08/02 10:20:25;;;;;;;;;;;;;;;17.04;54.59;100000.25;5101216;28;1432;-55
2023/08/02 10:22:51;;;;;;;;;;;;;;;17.04;54.46;99997.50;5096011;28;1073;-57
2023/08/02 10:25:17;;;;;;;;;;;;;;;17.06;54.50;100001.59;5076467;28;1074;-59
2023/08/02 10:27:43;;;;;;;;;;;;;;;17.08;54.33;99993.88;5078453;28;1245;-58
2023/08/02 10:30:09;;;;;;;;;;;;;;;17.14;54.25;99993.81;5077981;28;1157;-56
2023/08/02 10:32:34;;;;;;;;;;;;;;;17.07;54.50;100003.25;5076566;28;1879;-58
2023/08/02 10:35:00;;;;;;;;;;;;;;;17.07;54.68;99999.69;5096477;28;1137;-58
2023/08/02 10:37:45;;;;;;;;;;;;;;;17.06;54.69;100001.59;5094549;28;1053;-56
2023/08/02 10:40:11;;;;;;;;;;;;;;;17.08;54.61;100001.28;5089828;28;1198;-58
2023/08/02 10:42:56;;;;;;;;;;;;;;;17.08;54.51;100002.13;5095844;28;1002;-57
2023/08/02 10:45:22;;;;;;;;;;;;;;;17.04;54.66;99998.34;5089557;28;1844;-57
2023/08/02 10:47:47;;;;;;;;;;;;;;;17.07;54.45;99995.00;5086740;28;1253;-57
2023/08/02 10:50:33;;;;;;;;;;;;;;;17.06;54.74;99998.84;5095735;28;1209;-55
2023/08/02 10:53:06;;;;;;;;;;;;;;;17.07;54.65;99997.75;5095795;28;1957;-52
2023/08/02 10:55:32;;;;;;;;;;;;;;;17.13;54.46;99993.00;5094934;28;1315;-53
2023/08/02 10:57:57;;;;;;;;;;;;;;;17.10;54.64;99994.41;5090645;28;1008;-55
2023/08/02 11:00:25;;;;;;;;;;;;;;;17.07;54.76;99995.00;5093737;28;1046;-52
2023/08/02 11:02:51;;;;;;;;;;;;;;;17.10;54.76;99988.91;5095435;28;1308;-52
2023/08/02 11:05:19;;;;;;;;;;;;;;;17.07;54.95;99980.47;5095451;28;1042;-54
2023/08/02 11:07:58;;;;;;;;;;;;;;;17.07;54.81;99980.47;5094856;28;1141;-52
2023/08/02 11:10:23;;;;;;;;;;;;;;;17.14;54.64;99980.06;5089883;28;1459;-54
2023/08/02 11:12:52;;;;;;;;;;;;;;;17.14;54.69;99977.31;5092884;28;1913;-53
2023/08/02 11:15:18;;;;;;;;;;;;;;;17.21;54.44;99977.78;5092459;28;2337;-55
2023/08/02 11:17:44;;;;;;;;;;;;;;;17.10;54.93;99969.69;5094226;28;1268;-53
2023/08/02 11:20:09;;;;;;;;;;;;;;;17.09;54.95;99979.03;5095099;28;1291;-48
2023/08/02 11:22:36;;;;;;;;;;;;;;;17.16;54.93;99975.91;5071655;28;1080;-51
2023/08/02 11:25:03;;;;;;;;;;;;;;;17.08;55.07;99984.81;5093664;28;986;-50
2023/08/02 11:27:28;;;;;;;;;;;;;;;17.12;54.77;99980.38;5082255;28;1107;-51
2023/08/02 11:29:58;;;;;;;;;;;;;;;17.11;55.05;99967.75;5093932;28;1292;-53
2023/08/02 11:32:23;;;;;;;;;;;;;;;17.09;54.99;99965.28;5085864;28;1973;-52
2023/08/02 11:34:49;;;;;;;;;;;;;;;17.13;54.79;99979.25;5094904;28;1074;-54
2023/08/02 11:37:15;;;;;;;;;;;;;;;17.09;54.94;99973.53;5094267;28;1279;-52
2023/08/02 11:39:53;;;;;;;;;;;;;;;17.17;54.87;99974.00;5095475;28;1077;-55
2023/08/02 11:42:19;;;;;;;;;;;;;;;17.07;54.96;99975.78;5095016;28;1090;-51
2023/08/02 11:44:45;;;;;;;;;;;;;;;17.10;55.16;99966.94;5095498;28;1839;-51
2023/08/02 11:47:10;;;;;;;;;;;;;;;17.09;55.19;99953.50;5088651;28;1062;-55
2023/08/02 11:49:48;;;;;;;;;;;;;;;17.16;55.08;99958.63;5100142;28;1312;-53
2023/08/02 11:52:23;;;;;;;;;;;;;;;17.12;55.19;99965.81;5099017;28;1319;-53
2023/08/02 11:54:48;;;;;;;;;;;;;;;17.15;55.15;99962.47;5081120;28;1363;-52
2023/08/02 11:57:14;;;;;;;;;;;;;;;17.16;54.90;99964.13;5087260;28;1197;-54
2023/08/02 11:59:42;;;;;;;;;;;;;;;17.16;54.80;99972.34;5073371;28;1265;-54
2023/08/02 12:02:21;;;;;;;;;;;;;;;17.11;55.07;99965.03;5098415;28;1114;-55
2023/08/02 12:04:46;;;;;;;;;;;;;;;17.15;54.87;99965.22;5097956;28;1133;-56
2023/08/02 12:07:12;;;;;;;;;;;;;;;17.14;54.90;99960.84;5077798;28;1254;-55
2023/08/02 12:09:40;;;;;;;;;;;;;;;17.18;54.74;99967.38;5078370;28;1744;-55
2023/08/02 12:12:06;;;;;;;;;;;;;;;17.13;54.84;99978.44;5096940;28;1389;-55
2023/08/02 12:14:31;;;;;;;;;;;;;;;17.12;54.92;99965.81;5098758;28;1906;-55
2023/08/02 12:16:57;;;;;;;;;;;;;;;17.12;54.90;99968.56;5099224;28;2709;-55
2023/08/02 12:19:41;;;;;;;;;;;;;;;17.13;54.88;99965.53;5080355;28;1192;-52
2023/08/02 12:22:06;;;;;;;;;;;;;;;17.14;54.88;99972.66;5091299;28;1244;-55
2023/08/02 12:24:32;;;;;;;;;;;;;;;17.15;54.82;99963.28;5095431;28;1397;-55
2023/08/02 12:27:10;;;;;;;;;;;;;;;17.13;54.76;99965.53;5097804;28;1173;-54
2023/08/02 12:29:36;;;;;;;;;;;;;;;17.12;54.83;99971.31;5098282;28;1102;-54
2023/08/02 12:32:01;;;;;;;;;;;;;;;17.15;55.00;99977.03;5096298;28;1066;-54
2023/08/02 12:34:27;;;;;;;;;;;;;;;17.15;54.96;99971.53;5095050;28;1984;-54
2023/08/02 12:36:54;;;;;;;;;;;;;;;17.15;55.00;99962.47;5087723;28;1251;-56
2023/08/02 12:39:19;;;;;;;;;;;;;;;17.13;54.86;99967.47;5077616;28;1134;-54
2023/08/02 12:41:47;;;;;;;;;;;;;;;17.12;55.01;99960.34;5099076;28;1428;-54
2023/08/02 12:44:13;;;;;;;;;;;;;;;17.17;55.14;99963.00;5099389;28;1141;-50